Portada
METAR-TAF:

METAR-TAF

Aeroports :

St. Francis, Kansas, Estats Units d'Amèrica

latitud: 39-45-40N, longitud: 101-47-45W, altitud: 1040 m

Observació

L'informe es va fer fa 32 minuts, a les 07:15 UTC
Vent 4 kt del Est/Sud-Est
Temperatura 18°C
Humitat 77%
Pressió 1019 hPa
Visibilitat: 16.1 km
Cel clar

METAR: KSYF 200715Z AUTO 11004KT 10SM CLR 18/14 A3010 RMK AO2 PRESRR

Hora: 02:47 (07:47 UTC)


TAF: manca

Observacions i pronòstics meteorològics de més de 4000 aeroports (METAR i TAF).

Les estacions disponibles són els punts grocs i vermells al mapa.

Posi el ratolí al punt desitjat per veure el nom de l'estació.

Feu clic per veure les observacions i els pronòstics meteorològics.

Per canviar el mapa: feu clic els botons verds amb una creu de color negre per apropar; al botó verd amb un guió per allunyar la imatge; o en les fletxes verdes per a mapes adjacents.


METAR-TAF: